Time;durP1;ratioP1;P1;durP2;ratioP2;P2;SDS_P1;SDS_P2;PMS_P1;PMS_P2;Temp;Humidity;BMP_temperature;BMP_pressure;BME280_temperature;BME280_humidity;BME280_pressure;Samples;Min_cycle;Max_cycle;Signal;HPM_P1;HPM_P2
2023/03/01 00:01:46;;;;;;;26.02;6.70;;;2.00;99.90;;;;;;4999231;28;20064;-81
2023/03/01 00:04:12;;;;;;;81.75;8.75;;;1.50;99.90;;;;;;5014631;28;20512;-81
2023/03/01 00:06:38;;;;;;;57.72;7.72;;;1.60;99.90;;;;;;5015121;28;20030;-81
2023/03/01 00:09:04;;;;;;;71.78;9.23;;;1.30;99.90;;;;;;5031177;28;20195;-82
2023/03/01 00:11:32;;;;;;;67.78;7.32;;;1.30;99.90;;;;;;4999125;28;20041;-82
2023/03/01 00:14:00;;;;;;;26.50;6.03;;;2.90;99.90;;;;;;5014788;28;20112;-81
2023/03/01 00:16:28;;;;;;;57.97;8.00;;;1.20;99.90;;;;;;5031178;28;20041;-81
2023/03/01 00:18:55;;;;;;;14.20;5.80;;;1.20;99.90;;;;;;5031054;28;20109;-83
2023/03/01 00:21:22;;;;;;;27.10;6.22;;;1.70;99.90;;;;;;4998550;28;20041;-81
2023/03/01 00:23:48;;;;;;;23.38;6.05;;;1.10;99.90;;;;;;5014653;28;20509;-81
2023/03/01 00:26:15;;;;;;;63.00;7.97;;;1.20;99.90;;;;;;5030000;28;20042;-80
2023/03/01 00:28:42;;;;;;;62.30;6.93;;;1.60;99.90;;;;;;5030940;28;20045;-81
2023/03/01 00:31:10;;;;;;;21.25;6.32;;;0.80;99.90;;;;;;5014622;28;20041;-81
2023/03/01 00:33:36;;;;;;;96.50;9.23;;;0.80;99.90;;;;;;5031193;28;20051;-82
2023/03/01 00:36:03;;;;;;;99.13;9.05;;;0.60;99.90;;;;;;5030978;28;20116;-81
2023/03/01 00:38:29;;;;;;;135.45;12.40;;;0.50;99.90;;;;;;5031002;28;20036;-81
2023/03/01 00:40:55;;;;;;;135.00;10.90;;;0.80;99.90;;;;;;5014047;28;20033;-81
2023/03/01 00:43:21;;;;;;;74.88;8.57;;;1.90;99.90;;;;;;5014128;28;20035;-81
2023/03/01 00:45:47;;;;;;;87.13;9.55;;;0.30;99.90;;;;;;5014104;28;20046;-81
2023/03/01 00:48:13;;;;;;;56.88;8.50;;;0.40;99.90;;;;;;5013908;28;20518;-82
2023/03/01 00:50:38;;;;;;;114.78;11.00;;;0.30;99.90;;;;;;4998293;28;20037;-81
2023/03/01 00:53:04;;;;;;;74.25;8.27;;;0.30;99.90;;;;;;5014025;28;20041;-81
2023/03/01 00:55:30;;;;;;;104.13;10.63;;;0.30;99.90;;;;;;5030740;28;20045;-81
2023/03/01 00:57:56;;;;;;;80.83;8.70;;;1.20;99.90;;;;;;5030447;28;20397;-81
2023/03/01 01:00:22;;;;;;;39.78;8.23;;;0.40;99.90;;;;;;4997841;28;20284;-81
2023/03/01 01:02:48;;;;;;;13.27;6.28;;;0.30;99.90;;;;;;5014205;28;20042;-81
2023/03/01 01:05:14;;;;;;;14.15;6.15;;;0.20;99.90;;;;;;5030602;28;20250;-81
2023/03/01 01:07:39;;;;;;;37.67;7.47;;;1.10;99.90;;;;;;5030597;28;20087;-81
2023/03/01 01:10:06;;;;;;;24.52;5.97;;;0.20;99.90;;;;;;4997622;28;20046;-81
2023/03/01 01:12:32;;;;;;;30.98;6.47;;;0.10;99.90;;;;;;5030375;28;20033;-81
2023/03/01 01:14:58;;;;;;;43.47;9.40;;;0.60;99.90;;;;;;5030530;28;20033;-81
2023/03/01 01:17:24;;;;;;;34.42;8.38;;;0.00;99.90;;;;;;5029966;28;20051;-81
2023/03/01 01:19:50;;;;;;;35.10;8.48;;;0.00;99.90;;;;;;5030288;28;20037;-81
2023/03/01 01:22:15;;;;;;;34.92;8.35;;;0.30;99.90;;;;;;5013032;28;20049;-80
2023/03/01 01:24:41;;;;;;;29.83;9.85;;;0.00;99.90;;;;;;5013071;28;20038;-82
2023/03/01 01:27:07;;;;;;;33.85;8.10;;;0.00;99.90;;;;;;5029262;28;20124;-81
2023/03/01 01:29:33;;;;;;;47.97;9.60;;;0.10;99.90;;;;;;4997332;28;20025;-82
2023/03/01 01:31:59;;;;;;;66.88;9.95;;;0.10;99.90;;;;;;5030030;28;20350;-81
2023/03/01 01:34:24;;;;;;;117.38;12.88;;;0.10;99.90;;;;;;5013561;28;20048;-82
2023/03/01 01:36:55;;;;;;;170.47;12.60;;;0.40;99.90;;;;;;5015269;28;20040;-82
2023/03/01 01:39:22;;;;;;;192.20;15.70;;;0.00;99.90;;;;;;5013237;28;20846;-82
2023/03/01 01:41:48;;;;;;;146.70;12.45;;;0.00;99.90;;;;;;5029859;28;20121;-82
2023/03/01 01:44:17;;;;;;;149.60;12.52;;;0.00;99.90;;;;;;4996382;28;20057;-82
2023/03/01 01:47:12;;;;;;;109.05;11.02;;;0.40;99.90;;;;;;5030290;28;20513;-81
2023/03/01 01:49:59;;;;;;;145.05;10.02;;;-0.10;99.90;;;;;;5027709;28;20037;-82
2023/03/01 01:52:35;;;;;;;108.53;9.27;;;-0.10;99.90;;;;;;5029690;28;20120;-82
2023/03/01 01:55:06;;;;;;;135.23;10.63;;;0.80;99.90;;;;;;5060339;28;20443;-82
2023/03/01 01:57:58;;;;;;;155.23;11.50;;;-0.20;99.90;;;;;;5013516;28;20405;-82
2023/03/01 02:00:27;;;;;;;215.43;13.02;;;-0.20;99.90;;;;;;5012961;28;20041;-81
2023/03/01 02:03:17;;;;;;;216.80;12.73;;;1.00;99.90;;;;;;5029428;28;20064;-82
2023/03/01 02:06:01;;;;;;;203.60;13.25;;;-0.30;99.90;;;;;;5030041;28;20489;-82
2023/03/01 02:08:30;;;;;;;183.15;11.70;;;-0.40;99.90;;;;;;5028828;28;20037;-82
2023/03/01 02:10:59;;;;;;;145.90;11.50;;;-0.50;99.90;;;;;;5043859;28;20048;-82
2023/03/01 02:13:25;;;;;;;72.75;8.63;;;-0.50;99.90;;;;;;5012752;28;20045;-82
2023/03/01 02:15:51;;;;;;;;;;;1.10;99.90;;;;;;5030205;28;20397;-82
2023/03/01 02:18:19;;;;;;;38.55;7.50;;;-0.60;99.90;;;;;;5012630;28;19924;-82
2023/03/01 02:20:52;;;;;;;86.82;9.75;;;1.10;99.90;;;;;;5012934;28;20116;-82
2023/03/01 02:23:17;;;;;;;136.48;10.65;;;-0.60;99.90;;;;;;5027752;28;20037;-82
2023/03/01 02:25:50;;;;;;;105.97;11.15;;;0.60;99.90;;;;;;5011766;28;20048;-82
2023/03/01 02:28:15;;;;;;;128.25;10.80;;;-0.60;99.90;;;;;;5029057;28;20044;-82
2023/03/01 02:33:37;;;;;;;137.23;9.50;;;-0.60;99.90;;;;;;5028234;28;20041;-82
2023/03/01 02:36:17;;;;;;;105.47;10.38;;;-0.70;99.90;;;;;;5029141;28;20045;-82
2023/03/01 02:38:43;;;;;;;57.78;9.52;;;-0.60;99.90;;;;;;5029365;28;20045;-82
2023/03/01 02:41:14;;;;;;;55.97;9.00;;;-0.60;99.90;;;;;;5012556;28;20073;-82
2023/03/01 02:43:41;;;;;;;160.18;13.18;;;-0.70;99.90;;;;;;5029090;28;20046;-82
2023/03/01 02:46:19;;;;;;;126.40;10.48;;;-0.70;99.90;;;;;;5012560;28;20076;-81
2023/03/01 02:48:48;;;;;;;122.72;10.18;;;-0.80;99.90;;;;;;5030801;28;20040;-81
2023/03/01 02:51:25;;;;;;;83.85;9.63;;;-0.80;99.90;;;;;;5032897;28;20080;-81
2023/03/01 02:54:16;;;;;;;95.80;10.25;;;-0.80;99.90;;;;;;5033148;28;20505;-80
2023/03/01 02:56:43;;;;;;;69.25;10.27;;;-0.90;99.90;;;;;;5033002;28;20658;-81
2023/03/01 02:59:10;;;;;;;53.35;8.40;;;-0.80;99.90;;;;;;5016190;28;20152;-80
2023/03/01 03:01:36;;;;;;;120.03;10.05;;;-0.90;99.90;;;;;;5032941;28;20120;-80
2023/03/01 03:04:11;;;;;;;131.75;10.65;;;-0.20;99.90;;;;;;5032561;28;20120;-81
2023/03/01 03:06:37;;;;;;;108.25;9.52;;;-0.10;99.90;;;;;;5032756;28;20512;-81
2023/03/01 03:09:04;;;;;;;66.07;8.43;;;-0.80;99.90;;;;;;5016477;28;20140;-81
2023/03/01 03:11:32;;;;;;;58.45;8.23;;;-1.10;99.90;;;;;;5031586;28;20516;-81
2023/03/01 03:13:57;;;;;;;44.45;7.88;;;-1.20;99.90;;;;;;5016041;28;20044;-81
2023/03/01 03:16:24;;;;;;;46.78;7.80;;;-1.20;99.90;;;;;;4997406;28;20447;-81
2023/03/01 03:18:50;;;;;;;;;;;-1.10;99.90;;;;;;5017110;28;20082;-81
2023/03/01 03:21:16;;;;;;;64.80;9.18;;;0.90;99.90;;;;;;5032260;28;19929;-81
2023/03/01 03:23:43;;;;;;;59.05;9.23;;;-1.10;99.90;;;;;;4999317;28;20080;-81
2023/03/01 03:26:09;;;;;;;81.55;8.80;;;-1.30;99.90;;;;;;5031733;28;20033;-80
2023/03/01 03:28:35;;;;;;;97.60;11.13;;;-1.30;99.90;;;;;;4999448;28;20119;-81
2023/03/01 03:31:06;;;;;;;94.50;10.10;;;-1.20;99.90;;;;;;5032408;28;20025;-81
2023/03/01 03:33:32;;;;;;;90.47;9.98;;;-1.30;99.90;;;;;;5015222;28;20041;-81
2023/03/01 03:35:58;;;;;;;134.88;11.07;;;;;;;;;;5031807;28;20041;-81
2023/03/01 03:38:24;;;;;;;86.13;9.93;;;-1.50;99.90;;;;;;5031889;28;20042;-81
2023/03/01 03:41:02;;;;;;;204.02;15.77;;;-1.60;99.90;;;;;;5015662;28;20052;-81
2023/03/01 03:43:29;;;;;;;160.45;12.77;;;-1.60;99.90;;;;;;5029880;28;20156;-81
2023/03/01 03:45:56;;;;;;;62.45;9.70;;;-1.60;99.90;;;;;;5015618;28;20505;-81
2023/03/01 03:48:23;;;;;;;44.45;8.57;;;-1.60;99.90;;;;;;5014843;28;20037;-82
2023/03/01 03:50:50;;;;;;;;;;;-1.60;99.90;;;;;;5016124;28;20052;-82
2023/03/01 03:53:16;;;;;;;19.67;7.43;;;-0.10;99.90;;;;;;5031516;28;19917;-82
2023/03/01 03:55:41;;;;;;;39.55;8.43;;;-0.20;99.90;;;;;;5015750;28;20143;-81
2023/03/01 03:58:09;;;;;;;23.20;8.32;;;-1.60;99.90;;;;;;5015036;28;20056;-81
2023/03/01 04:00:38;;;;;;;53.55;9.02;;;-1.70;99.90;;;;;;5014975;28;20087;-81
2023/03/01 04:03:04;;;;;;;56.83;9.32;;;-1.70;99.90;;;;;;5030584;28;20045;-82
2023/03/01 04:05:30;;;;;;;88.28;12.63;;;-1.70;99.90;;;;;;5014846;28;20477;-82
2023/03/01 04:08:03;;;;;;;57.50;9.60;;;-1.80;99.90;;;;;;5031382;28;20056;-82
2023/03/01 04:10:35;;;;;;;48.13;9.68;;;-1.80;99.90;;;;;;5012988;28;20839;-82
2023/03/01 04:13:01;;;;;;;44.03;9.25;;;-1.80;99.90;;;;;;5014075;28;20107;-82
2023/03/01 04:15:27;;;;;;;44.33;9.60;;;-0.50;99.90;;;;;;5031169;28;20505;-82
2023/03/01 04:17:54;;;;;;;49.25;9.55;;;-1.80;99.90;;;;;;5031458;28;20045;-80
2023/03/01 04:20:24;;;;;;;66.70;10.73;;;-0.10;99.90;;;;;;5014780;28;20042;-81
2023/03/01 04:23:15;;;;;;;53.05;8.45;;;-1.80;99.90;;;;;;5031500;28;20038;-81
2023/03/01 04:25:54;;;;;;;57.28;11.40;;;-1.80;99.90;;;;;;5015030;28;20026;-81
2023/03/01 04:28:25;;;;;;;43.35;8.15;;;-1.80;99.90;;;;;;5030640;28;20076;-82
2023/03/01 04:30:56;;;;;;;47.95;8.80;;;-1.80;99.90;;;;;;5045767;28;20037;-81
2023/03/01 04:33:22;;;;;;;49.05;10.05;;;-1.80;99.90;;;;;;5030742;28;20041;-81
2023/03/01 04:35:49;;;;;;;67.65;10.35;;;-2.00;99.90;;;;;;5030968;28;20041;-81
2023/03/01 04:38:19;;;;;;;39.28;8.20;;;-2.00;99.90;;;;;;5030685;28;20065;-81
2023/03/01 04:40:45;;;;;;;22.52;7.97;;;-1.40;99.90;;;;;;5013744;28;20038;-81
2023/03/01 04:43:15;;;;;;;26.77;8.40;;;-2.10;99.90;;;;;;5013968;28;20052;-81
2023/03/01 04:45:41;;;;;;;32.50;8.43;;;-2.20;99.90;;;;;;5013966;28;20053;-81
2023/03/01 04:48:07;;;;;;;55.50;9.32;;;-2.20;99.90;;;;;;5014348;28;20390;-81
2023/03/01 04:50:33;;;;;;;77.45;10.43;;;-2.30;99.90;;;;;;5030374;28;20037;-81
2023/03/01 04:52:59;;;;;;;137.45;11.80;;;-2.30;99.90;;;;;;5014443;28;20048;-81
2023/03/01 04:55:26;;;;;;;106.25;10.93;;;-2.30;99.90;;;;;;5030275;28;20037;-81
2023/03/01 04:57:53;;;;;;;71.90;10.18;;;-1.50;99.90;;;;;;5029870;28;20151;-80
2023/03/01 05:00:22;;;;;;;60.65;9.95;;;-2.20;99.90;;;;;;5013464;28;20049;-80
2023/03/01 05:02:55;;;;;;;45.42;9.65;;;-2.20;99.90;;;;;;5014137;28;20041;-81
2023/03/01 05:05:25;;;;;;;65.28;11.77;;;-2.20;99.90;;;;;;5030138;28;20151;-80
2023/03/01 05:07:52;;;;;;;62.13;12.02;;;-2.20;99.90;;;;;;5030905;28;20048;-81
2023/03/01 05:10:18;;;;;;;59.65;9.82;;;-2.20;99.90;;;;;;5029878;28;20120;-81
2023/03/01 05:12:44;;;;;;;42.33;8.55;;;-2.20;99.90;;;;;;5013524;28;20120;-84
2023/03/01 05:15:10;;;;;;;88.80;10.68;;;-2.20;99.90;;;;;;5031143;28;20041;-83
2023/03/01 05:17:36;;;;;;;70.40;10.95;;;-2.20;99.90;;;;;;5013587;28;20041;-81
2023/03/01 05:20:06;;;;;;;61.08;10.32;;;-2.10;99.90;;;;;;5013784;28;20041;-83
2023/03/01 05:22:32;;;;;;;53.28;10.15;;;-2.10;99.90;;;;;;4997823;28;20037;-83
2023/03/01 05:24:58;;;;;;;61.88;10.25;;;-2.10;99.90;;;;;;5029920;28;20045;-81
2023/03/01 05:27:23;;;;;;;46.95;8.73;;;-2.10;99.90;;;;;;5029897;28;20543;-81
2023/03/01 05:29:49;;;;;;;32.03;9.40;;;-2.10;99.90;;;;;;5014073;28;20136;-81
2023/03/01 05:32:15;;;;;;;90.53;11.10;;;-2.10;99.90;;;;;;5014073;28;20375;-81
2023/03/01 05:34:41;;;;;;;26.13;8.73;;;-1.70;99.90;;;;;;5013738;28;20041;-82
2023/03/01 05:37:08;;;;;;;29.23;9.07;;;-1.40;99.90;;;;;;5014085;28;20516;-81
2023/03/01 05:39:33;;;;;;;;;;;-2.20;99.90;;;;;;4997251;28;20550;-82
2023/03/01 05:42:01;;;;;;;84.35;10.55;;;-2.20;99.90;;;;;;5013435;28;19964;-81
2023/03/01 05:44:28;;;;;;;179.02;16.20;;;-2.20;99.90;;;;;;4996986;28;20528;-80
2023/03/01 05:46:54;;;;;;;61.85;10.20;;;-1.20;99.90;;;;;;5029859;28;20120;-81
2023/03/01 05:49:20;;;;;;;;;;;-2.30;99.90;;;;;;5011081;28;20108;-81
2023/03/01 05:51:51;;;;;;;26.63;8.95;;;-2.30;99.90;;;;;;4996733;28;19925;-81
2023/03/01 05:54:17;;;;;;;47.53;10.60;;;-2.30;99.90;;;;;;5013407;28;20927;-80
2023/03/01 05:56:44;;;;;;;21.85;9.63;;;-2.40;99.90;;;;;;5012895;28;20042;-81
2023/03/01 05:59:11;;;;;;;34.63;9.82;;;-2.40;99.90;;;;;;5029491;28;20120;-81
2023/03/01 06:01:37;;;;;;;33.30;8.73;;;-2.40;99.90;;;;;;5026692;28;20052;-81
2023/03/01 06:04:03;;;;;;;41.85;9.30;;;-2.40;99.90;;;;;;5012795;28;20033;-81
2023/03/01 06:06:29;;;;;;;23.63;10.38;;;-2.40;99.90;;;;;;5029176;28;20034;-81
2023/03/01 06:08:55;;;;;;;26.90;9.23;;;-2.40;99.90;;;;;;5013249;28;20034;-81
2023/03/01 06:11:21;;;;;;;19.38;9.07;;;-2.50;99.90;;;;;;5029613;28;20033;-81
2023/03/01 06:13:47;;;;;;;20.40;8.40;;;-2.40;99.90;;;;;;5029108;28;20033;-81
2023/03/01 06:16:14;;;;;;;22.73;8.82;;;-2.40;99.90;;;;;;5013293;28;20048;-81
2023/03/01 06:18:40;;;;;;;32.25;9.02;;;-2.40;99.90;;;;;;5029096;28;20394;-80
2023/03/01 06:21:07;;;;;;;93.50;13.63;;;-2.40;99.90;;;;;;5029351;28;20396;-80
2023/03/01 06:23:34;;;;;;;102.95;14.07;;;-1.90;99.90;;;;;;5033786;28;20448;-81
2023/03/01 06:25:59;;;;;;;;;;;-1.90;99.90;;;;;;5035770;28;20048;-80
2023/03/01 06:28:25;;;;;;;38.17;10.10;;;-2.30;99.90;;;;;;5017471;28;19921;-80
2023/03/01 06:30:51;;;;;;;41.08;11.63;;;-0.20;99.90;;;;;;5033327;28;20117;-80
2023/03/01 06:33:19;;;;;;;15.50;7.68;;;-2.30;99.90;;;;;;5017182;28;20037;-80
2023/03/01 06:35:46;;;;;;;47.63;9.32;;;-2.30;99.90;;;;;;5016993;28;20567;-79
2023/03/01 06:38:14;;;;;;;21.05;9.25;;;-1.80;99.90;;;;;;5034142;28;20037;-81
2023/03/01 06:40:40;;;;;;;46.65;9.93;;;-0.80;99.90;;;;;;5016429;28;20052;-81
2023/03/01 06:43:07;;;;;;;34.25;9.55;;;-2.20;99.90;;;;;;5033402;28;20493;-81
2023/03/01 06:45:33;;;;;;;11.77;7.72;;;-1.60;99.90;;;;;;5032669;28;20064;-81
2023/03/01 06:48:07;;;;;;;11.35;7.07;;;-2.10;99.90;;;;;;5033157;28;20042;-81
2023/03/01 06:50:34;;;;;;;13.40;7.57;;;-2.10;99.90;;;;;;5014763;28;20478;-81
2023/03/01 06:53:00;;;;;;;12.93;7.80;;;-2.10;99.90;;;;;;5033040;28;20091;-81
2023/03/01 06:55:26;;;;;;;12.23;7.43;;;-2.00;99.90;;;;;;5016617;28;20083;-81
2023/03/01 06:57:57;;;;;;;12.85;7.53;;;-1.60;99.90;;;;;;5032628;28;20486;-81
2023/03/01 07:00:23;;;;;;;13.05;7.80;;;-1.60;99.90;;;;;;5033137;28;20389;-81
2023/03/01 07:02:48;;;;;;;;;;;-1.80;99.90;;;;;;5016454;28;20048;-81
2023/03/01 07:05:14;;;;;;;14.75;8.40;;;-0.90;99.90;;;;;;5032988;28;19917;-81
2023/03/01 07:07:40;;;;;;;15.02;8.07;;;-1.50;99.90;;;;;;5015834;28;20033;-81
2023/03/01 07:10:07;;;;;;;12.60;7.93;;;-1.30;99.90;;;;;;5016314;28;20045;-81
2023/03/01 07:12:32;;;;;;;14.30;8.00;;;-1.30;99.90;;;;;;5012936;28;20037;-81
2023/03/01 07:14:58;;;;;;;17.02;8.25;;;-1.10;99.90;;;;;;5000409;28;20116;-81
2023/03/01 07:17:24;;;;;;;13.90;8.13;;;-0.90;99.90;;;;;;4999924;28;20092;-82
2023/03/01 07:19:50;;;;;;;14.85;8.02;;;0.10;99.90;;;;;;4999653;28;20037;-82
2023/03/01 07:22:15;;;;;;;16.17;8.20;;;-0.60;99.90;;;;;;4999612;28;20072;-82
2023/03/01 07:24:42;;;;;;;13.52;7.60;;;-0.10;99.90;;;;;;5015324;28;20816;-82
2023/03/01 07:27:07;;;;;;;16.23;8.43;;;0.10;99.90;;;;;;5030287;28;20038;-81
2023/03/01 07:29:33;;;;;;;13.07;7.68;;;0.40;99.90;;;;;;5032555;28;20580;-82
2023/03/01 07:31:59;;;;;;;13.38;8.00;;;0.30;99.90;;;;;;5032522;28;20045;-82
2023/03/01 07:34:25;;;;;;;12.35;7.20;;;0.50;99.90;;;;;;5015436;28;20041;-82
2023/03/01 07:36:50;;;;;;;14.40;8.15;;;2.10;99.90;;;;;;5015578;28;20490;-77
2023/03/01 07:39:16;;;;;;;11.13;6.93;;;0.90;99.90;;;;;;5032009;28;20083;-79
2023/03/01 07:41:42;;;;;;;11.02;7.07;;;1.00;99.90;;;;;;5014994;28;20493;-79
2023/03/01 07:44:07;;;;;;;10.95;7.35;;;1.20;99.90;;;;;;5032263;28;20048;-79
2023/03/01 07:46:33;;;;;;;11.10;7.32;;;1.30;99.90;;;;;;5031971;28;20397;-79
2023/03/01 07:48:59;;;;;;;19.10;7.57;;;1.40;99.90;;;;;;4998965;28;20041;-80
2023/03/01 07:51:24;;;;;;;61.03;10.87;;;1.50;99.90;;;;;;5015664;28;20029;-80
2023/03/01 07:53:50;;;;;;;12.47;7.27;;;1.60;99.90;;;;;;4998739;28;20116;-78
2023/03/01 07:56:18;;;;;;;18.43;7.73;;;1.70;99.90;;;;;;4998144;28;20288;-79
2023/03/01 07:58:44;;;;;;;15.38;7.82;;;2.50;99.90;;;;;;5028539;28;20292;-80
2023/03/01 08:01:16;;;;;;;27.00;8.82;;;2.50;99.90;;;;;;5032002;28;20176;-80
2023/03/01 08:03:43;;;;;;;261.75;31.05;;;2.30;99.90;;;;;;5031626;28;20684;-80
2023/03/01 08:06:11;;;;;;;91.35;14.20;;;2.70;99.90;;;;;;5015319;28;20041;-80
2023/03/01 08:08:37;;;;;;;24.77;8.32;;;2.70;99.90;;;;;;5031580;28;20045;-80
2023/03/01 08:11:06;;;;;;;75.25;13.95;;;3.00;99.90;;;;;;5031484;28;20034;-81
2023/03/01 08:13:32;;;;;;;34.95;11.50;;;3.50;99.90;;;;;;5031727;28;20041;-78
2023/03/01 08:16:07;;;;;;;13.45;7.03;;;4.30;99.90;;;;;;5014646;28;20044;-79
2023/03/01 08:18:33;;;;;;;11.68;6.95;;;5.10;99.90;;;;;;5030497;28;20041;-80
2023/03/01 08:21:07;;;;;;;10.77;6.18;;;5.90;99.90;;;;;;5031397;28;20041;-80
2023/03/01 08:23:33;;;;;;;8.68;6.05;;;6.50;99.90;;;;;;5031069;28;20125;-80
2023/03/01 08:26:19;;;;;;;8.90;6.30;;;6.50;99.90;;;;;;5014574;28;20061;-80
2023/03/01 08:28:46;;;;;;;11.55;6.22;;;6.60;99.90;;;;;;5014338;28;20105;-79
2023/03/01 08:31:21;;;;;;;8.57;5.78;;;6.70;99.90;;;;;;4998509;28;20494;-79
2023/03/01 08:33:50;;;;;;;9.77;6.90;;;6.90;99.90;;;;;;5030395;28;20037;-79
2023/03/01 08:36:17;;;;;;;9.98;6.68;;;7.10;99.90;;;;;;5030503;28;20049;-79
2023/03/01 08:38:43;;;;;;;11.27;6.38;;;7.40;99.90;;;;;;5030083;28;20041;-80
2023/03/01 08:41:09;;;;;;;10.45;6.68;;;7.80;99.90;;;;;;5030759;28;20408;-79
2023/03/01 08:43:34;;;;;;;10.57;6.50;;;8.40;99.90;;;;;;5013611;28;20045;-80
2023/03/01 08:46:03;;;;;;;12.80;7.23;;;8.90;99.90;;;;;;5012942;28;20652;-81
2023/03/01 08:48:29;;;;;;;41.70;11.38;;;9.30;99.90;;;;;;5030435;28;20045;-81
2023/03/01 08:50:55;;;;;;;17.13;9.57;;;9.70;99.90;;;;;;5014043;28;20041;-81
2023/03/01 08:53:21;;;;;;;13.88;9.50;;;10.10;99.90;;;;;;5030579;28;20277;-82
2023/03/01 08:55:46;;;;;;;14.87;8.20;;;10.40;99.90;;;;;;5013771;28;20120;-81
2023/03/01 08:58:12;;;;;;;12.93;8.15;;;10.60;99.90;;;;;;5014232;28;20311;-82
2023/03/01 09:00:38;;;;;;;14.57;8.85;;;11.10;99.90;;;;;;5030325;28;20049;-82
2023/03/01 09:03:04;;;;;;;15.73;9.95;;;11.40;99.90;;;;;;5013852;28;20117;-82
2023/03/01 09:05:34;;;;;;;18.95;12.85;;;11.60;99.90;;;;;;5014214;28;20029;-81
2023/03/01 09:07:59;;;;;;;19.83;12.68;;;11.70;99.90;;;;;;5013938;28;20096;-82
2023/03/01 09:10:25;;;;;;;22.13;14.02;;;11.90;99.90;;;;;;5014023;28;20119;-81
2023/03/01 09:12:51;;;;;;;21.58;13.48;;;12.10;99.90;;;;;;5030276;28;20036;-81
2023/03/01 09:15:17;;;;;;;20.45;12.90;;;11.70;99.90;;;;;;5030368;28;20034;-81
2023/03/01 09:17:43;;;;;;;19.67;12.60;;;11.50;99.90;;;;;;5029907;28;20034;-81
2023/03/01 09:20:10;;;;;;;20.45;12.70;;;11.10;99.90;;;;;;5030396;28;20052;-81
2023/03/01 09:22:35;;;;;;;17.88;11.63;;;11.60;99.90;;;;;;4997622;28;20397;-81
2023/03/01 09:25:01;;;;;;;19.42;12.63;;;11.70;99.90;;;;;;4996903;28;20045;-81
2023/03/01 09:27:27;;;;;;;18.08;11.93;;;11.40;99.90;;;;;;5029995;28;20029;-81
2023/03/01 09:29:52;;;;;;;19.40;12.77;;;11.70;99.90;;;;;;5029768;28;20069;-81
2023/03/01 09:32:18;;;;;;;19.00;12.82;;;11.90;99.90;;;;;;5030240;28;20401;-81
2023/03/01 09:35:04;;;;;;;17.10;12.55;;;11.90;99.90;;;;;;5013830;28;20065;-81
2023/03/01 09:37:35;;;;;;;19.55;12.68;;;12.60;99.90;;;;;;5029771;28;20076;-81
2023/03/01 09:40:01;;;;;;;19.90;13.13;;;13.00;99.90;;;;;;5029647;28;20049;-81
2023/03/01 09:42:30;;;;;;;20.38;14.10;;;13.40;99.90;;;;;;5013545;28;20434;-81
2023/03/01 09:45:04;;;;;;;18.90;13.65;;;13.00;99.90;;;;;;5008499;28;20120;-81
2023/03/01 09:47:35;;;;;;;17.10;12.25;;;12.70;99.90;;;;;;5030927;28;20064;-81
2023/03/01 09:50:17;;;;;;;19.55;12.82;;;12.90;99.90;;;;;;5013086;28;20494;-81
2023/03/01 09:53:04;;;;;;;19.27;12.82;;;13.30;99.90;;;;;;5027094;28;20046;-80
2023/03/01 09:55:32;;;;;;;17.83;12.48;;;14.00;99.90;;;;;;5012846;28;20033;-80
2023/03/01 09:58:13;;;;;;;18.17;13.32;;;14.00;99.90;;;;;;5029284;28;20041;-82
2023/03/01 10:00:44;;;;;;;18.77;12.30;;;14.00;99.90;;;;;;5029328;28;20116;-81
2023/03/01 10:03:39;;;;;;;17.95;12.38;;;13.90;99.50;;;;;;5012993;28;20041;-82
2023/03/01 10:06:25;;;;;;;17.02;12.50;;;13.90;99.40;;;;;;5012715;28;20077;-83
2023/03/01 10:08:54;;;;;;;16.53;11.60;;;14.20;99.40;;;;;;5012486;28;20105;-82
2023/03/01 10:11:41;;;;;;;14.55;10.65;;;14.20;99.20;;;;;;5013259;28;20371;-84
2023/03/01 10:14:43;;;;;;;15.50;11.50;;;14.10;98.00;;;;;;5044162;28;20350;-83
2023/03/01 10:17:17;;;;;;;16.30;11.35;;;14.40;98.00;;;;;;5027631;28;20072;-82
2023/03/01 10:19:45;;;;;;;15.50;11.65;;;14.50;96.60;;;;;;5012880;28;20033;-83
2023/03/01 10:22:21;;;;;;;15.80;11.32;;;14.70;97.00;;;;;;5010704;28;20042;-83
2023/03/01 10:24:47;;;;;;;13.23;9.43;;;15.20;96.00;;;;;;5012822;28;20501;-83
2023/03/01 10:27:16;;;;;;;12.80;9.43;;;15.70;94.90;;;;;;5012442;28;20041;-81
2023/03/01 10:30:03;;;;;;;11.85;9.25;;;15.50;94.40;;;;;;5029272;28;20037;-81
2023/03/01 10:32:29;;;;;;;12.52;9.13;;;15.20;94.70;;;;;;5028621;28;20520;-81
2023/03/01 10:34:55;;;;;;;11.20;8.82;;;15.10;94.40;;;;;;5012439;28;20117;-80
2023/03/01 10:37:24;;;;;;;12.93;9.77;;;15.20;94.30;;;;;;4979322;28;20176;-81
2023/03/01 10:39:55;;;;;;;14.63;10.75;;;15.60;94.50;;;;;;5043697;28;20033;-81
2023/03/01 10:42:30;;;;;;;15.63;10.13;;;15.10;94.20;;;;;;5029349;28;20111;-82
2023/03/01 10:44:56;;;;;;;14.18;10.50;;;15.10;95.30;;;;;;5028069;28;20504;-81
2023/03/01 10:47:25;;;;;;;12.57;10.55;;;15.20;94.50;;;;;;5027990;28;20072;-81
2023/03/01 10:49:56;;;;;;;15.13;10.32;;;15.40;94.90;;;;;;5028235;28;20099;-81
2023/03/01 10:52:29;;;;;;;14.20;10.80;;;15.20;94.10;;;;;;5029020;28;20033;-81
2023/03/01 10:55:00;;;;;;;15.68;10.52;;;14.90;93.40;;;;;;5012708;28;20037;-81
2023/03/01 10:57:32;;;;;;;13.00;9.90;;;15.50;93.50;;;;;;5011099;28;20067;-81
2023/03/01 11:00:22;;;;;;;13.93;10.85;;;15.70;93.30;;;;;;5011390;28;20073;-81
2023/03/01 11:03:03;;;;;;;14.35;10.65;;;15.50;94.00;;;;;;5027244;28;20046;-81
2023/03/01 11:05:30;;;;;;;13.00;10.07;;;15.40;93.80;;;;;;5060571;28;20365;-82
2023/03/01 11:08:00;;;;;;;13.75;10.82;;;15.80;94.10;;;;;;5012372;28;20041;-81
2023/03/01 11:10:32;;;;;;;13.40;10.60;;;15.20;93.60;;;;;;5015324;28;20109;-81
2023/03/01 11:13:15;;;;;;;16.17;11.70;;;14.80;94.00;;;;;;5032871;28;20447;-81
2023/03/01 11:15:42;;;;;;;14.68;11.43;;;15.00;94.20;;;;;;5032847;28;20116;-82
2023/03/01 11:18:22;;;;;;;17.30;11.93;;;15.40;93.60;;;;;;5032061;28;20049;-81
2023/03/01 11:20:51;;;;;;;14.50;11.10;;;15.30;93.90;;;;;;5014882;28;20044;-80
2023/03/01 11:23:17;;;;;;;18.50;13.10;;;15.10;94.70;;;;;;5031192;28;20045;-80
2023/03/01 11:25:51;;;;;;;14.55;11.38;;;15.00;95.00;;;;;;4999450;28;20073;-80
2023/03/01 11:28:19;;;;;;;15.05;11.50;;;15.60;94.20;;;;;;5015457;28;20054;-80
2023/03/01 11:31:00;;;;;;;15.52;11.93;;;15.60;93.60;;;;;;5015521;28;20069;-81
2023/03/01 11:33:53;;;;;;;13.20;10.68;;;16.10;93.70;;;;;;5016372;28;20048;-81
2023/03/01 11:36:38;;;;;;;14.20;10.50;;;16.40;93.20;;;;;;5031986;28;20124;-82
2023/03/01 11:39:19;;;;;;;13.32;11.02;;;16.60;92.70;;;;;;5012634;28;20052;-80
2023/03/01 11:41:52;;;;;;;13.18;11.00;;;16.70;91.90;;;;;;5015848;28;20041;-81
2023/03/01 11:44:27;;;;;;;12.13;10.13;;;16.70;92.60;;;;;;5047154;28;20049;-81
2023/03/01 11:47:12;;;;;;;15.40;12.00;;;16.70;92.60;;;;;;5029871;28;20485;-81
2023/03/01 11:50:05;;;;;;;13.70;10.38;;;16.70;92.50;;;;;;5013909;28;20128;-81
2023/03/01 11:52:37;;;;;;;12.88;10.50;;;16.80;92.00;;;;;;5031921;28;20136;-81
2023/03/01 11:55:38;;;;;;;11.88;10.40;;;16.40;92.70;;;;;;5015435;28;20076;-81
2023/03/01 11:58:41;;;;;;;14.02;11.13;;;17.10;92.20;;;;;;4934099;28;20485;-80
2023/03/01 12:01:21;;;;;;;11.68;10.38;;;17.00;92.00;;;;;;4992151;28;20053;-81
2023/03/01 12:04:15;;;;;;;10.65;8.98;;;17.20;91.40;;;;;;5031311;28;20370;-81
2023/03/01 12:06:59;;;;;;;12.63;9.10;;;17.40;90.90;;;;;;5030795;28;20367;-81
2023/03/01 12:09:36;;;;;;;11.10;9.65;;;17.60;91.30;;;;;;5031264;28;20078;-81
2023/03/01 12:12:20;;;;;;;;;;;17.70;91.20;;;;;;5015330;28;20033;-81
2023/03/01 12:15:04;;;;;;;11.98;8.98;;;17.80;90.60;;;;;;5014194;28;19917;-81
2023/03/01 12:18:05;;;;;;;14.35;10.13;;;17.00;90.60;;;;;;5014911;28;20045;-81
2023/03/01 12:20:49;;;;;;;13.82;9.68;;;17.40;90.70;;;;;;5031253;28;20046;-82
2023/03/01 12:23:30;;;;;;;10.98;9.13;;;17.00;91.10;;;;;;5029939;28;20052;-81
2023/03/01 12:26:27;;;;;;;11.57;9.02;;;16.80;90.60;;;;;;5029476;28;20033;-81
2023/03/01 12:29:19;;;;;;;12.07;9.35;;;16.90;91.10;;;;;;5028889;28;20033;-81
2023/03/01 12:32:27;;;;;;;10.27;8.73;;;16.80;91.20;;;;;;5031398;28;20397;-81
2023/03/01 12:35:21;;;;;;;12.50;8.82;;;16.50;91.00;;;;;;5018897;28;20045;-81
2023/03/01 12:38:13;;;;;;;10.82;8.98;;;16.40;91.50;;;;;;5028680;28;20053;-81
2023/03/01 12:40:47;;;;;;;12.15;9.55;;;16.20;91.60;;;;;;5029659;28;20046;-81
2023/03/01 12:43:35;;;;;;;11.95;9.32;;;16.00;91.50;;;;;;5064748;28;20521;-83
2023/03/01 12:46:20;;;;;;;12.60;9.27;;;16.10;91.70;;;;;;5029950;28;20159;-81
2023/03/01 12:49:00;;;;;;;10.45;8.55;;;16.80;91.40;;;;;;5029935;28;20045;-81
2023/03/01 12:51:30;;;;;;;12.95;9.25;;;16.30;91.20;;;;;;5030522;28;20421;-80
2023/03/01 12:53:59;;;;;;;10.98;8.93;;;16.30;91.70;;;;;;5012566;28;20584;-80
2023/03/01 12:56:31;;;;;;;10.60;8.43;;;16.10;91.60;;;;;;5014171;28;20120;-80
2023/03/01 12:59:22;;;;;;;10.75;7.60;;;16.20;91.60;;;;;;5028918;28;20108;-80